Virtuous Striker — C6XX6 — position and weather

sailwx.info

Track history (hours):
 
Tides and Currents Weather Stations Pressure Air Temp Water Temp Dewpoint Dewpoint Depression Visibility Wind Speed Wind Dir Waves Ship Positions

Virtuous Striker

Last reported at 2018-Apr-10 11:29 UTC. Time now 2018-Apr-26 09:46 UTC.
Position N 29°15' W 093°40'.
Warning: this ship's position is 15 days out of date.

Length 190 m; draft 12.2 m.

Type: Cargo ship. MMSI: 311025100.

Date/timePositionNaut miles runAvg speedWind from/ knotsBaromVisibWave heightAir tempDewpointWater temp
2018-Apr-10 11:29N 29°15' W 093°40'5 9.9
2018-Apr-10 10:59N 29°20' W 093°40'6 9.9
2018-Apr-10 10:26N 29°25' W 093°40'4 9.7
2018-Apr-10 10:00N 29°29' W 093°41'611.1
2018-Apr-10 09:30N 29°33' W 093°45'510.6
2018-Apr-10 09:00N 29°37' W 093°49'610.9
2018-Apr-10 08:30N 29°43' W 093°51'4 8.8
2018-Apr-10 08:00N 29°46' W 093°55'4 7.9
2018-Apr-10 07:30N 29°49' W 093°57'3 6.0
2018-Apr-10 07:00N 29°52' W 093°56'4 8.2
2018-Apr-10 06:30N 29°55' W 093°53'1 2.5
2018-Apr-10 06:00N 29°56' W 093°52'0 0.0
2018-Apr-10 05:30N 29°56' W 093°52'0 0.0
2018-Apr-10 05:00N 29°56' W 093°52'0 0.0
2018-Apr-10 04:30N 29°56' W 093°52'0 0.0
2018-Apr-10 04:00N 29°56' W 093°52'0 0.0
2018-Apr-10 03:30N 29°56' W 093°52'0 0.0
2018-Apr-10 03:00N 29°56' W 093°52'0 0.0
2018-Apr-10 02:30N 29°56' W 093°52'0 0.0
2018-Apr-10 02:00N 29°56' W 093°52'0 0.0
2018-Apr-10 01:30N 29°56' W 093°52'0 0.0
2018-Apr-10 01:00N 29°56' W 093°52'0 0.0
2018-Apr-10 00:30N 29°56' W 093°52'0 0.0
2018-Apr-10 00:00N 29°56' W 093°52'0 0.0
2018-Apr-09 23:30N 29°56' W 093°52'0 0.0
2018-Apr-09 23:00N 29°56' W 093°52'0 0.0
2018-Apr-09 22:30N 29°56' W 093°52'0 0.0
2018-Apr-09 22:00N 29°56' W 093°52'0 0.0
2018-Apr-09 21:30N 29°56' W 093°52'0 0.0
2018-Apr-09 21:00N 29°56' W 093°52'0 0.0
2018-Apr-09 20:30N 29°56' W 093°52'0 0.0
2018-Apr-09 20:00N 29°56' W 093°52'0 0.0
2018-Apr-09 19:30N 29°56' W 093°52'0 0.0
2018-Apr-09 19:00N 29°56' W 093°52'0 0.0
2018-Apr-09 18:30N 29°56' W 093°52'0 0.0
2018-Apr-09 18:00N 29°56' W 093°52'0 0.0
2018-Apr-09 17:30N 29°56' W 093°52'0 0.0
2018-Apr-09 17:00N 29°56' W 093°52'0 0.0
2018-Apr-09 16:30N 29°56' W 093°52'0 0.0
2018-Apr-09 16:00N 29°56' W 093°52'0 0.0
2018-Apr-09 13:06N 29°56' W 093°52'0 0.1
2018-Apr-09 13:00N 29°56' W 093°52'0 0.0
2018-Apr-09 12:30N 29°56' W 093°52'0 0.0
2018-Apr-09 12:00N 29°56' W 093°52'0 0.0
2018-Apr-09 11:30N 29°56' W 093°52'0 0.0
2018-Apr-09 11:00N 29°56' W 093°52'0 0.0
2018-Apr-09 10:30N 29°56' W 093°52'0 0.0
2018-Apr-09 10:00N 29°56' W 093°52'0 0.0
2018-Apr-09 09:30N 29°56' W 093°52'0 0.0
2018-Apr-09 09:00N 29°56' W 093°52'0 0.0
2018-Apr-09 08:30N 29°56' W 093°52'0 0.0
2018-Apr-09 08:00N 29°56' W 093°52'0 0.0
2018-Apr-09 07:30N 29°56' W 093°52'0 0.0
2018-Apr-09 07:00N 29°56' W 093°52'0 0.0
2018-Apr-09 06:30N 29°56' W 093°52'0 0.0
2018-Apr-09 06:00N 29°56' W 093°52'0 0.0
2018-Apr-09 05:30N 29°56' W 093°52'0 0.0
2018-Apr-09 05:00N 29°56' W 093°52'0 0.0
2018-Apr-09 04:30N 29°56' W 093°52'0 0.0
2018-Apr-09 04:00N 29°56' W 093°52'0 0.0
2018-Apr-09 03:30N 29°56' W 093°52'0 0.0
2018-Apr-09 03:00N 29°56' W 093°52'0 0.0
2018-Apr-09 02:30N 29°56' W 093°52'0 0.0
2018-Apr-09 02:00N 29°56' W 093°52'0 0.0
2018-Apr-09 01:30N 29°56' W 093°52'0 0.0
2018-Apr-09 01:00N 29°56' W 093°52'0 0.0
2018-Apr-09 00:30N 29°56' W 093°52'0 0.0
2018-Apr-09 00:00N 29°56' W 093°52'0 0.0
2018-Apr-08 23:30N 29°56' W 093°52'0 0.0
2018-Apr-08 23:00N 29°56' W 093°52'0 0.0
2018-Apr-08 22:30N 29°56' W 093°52'0 0.0
2018-Apr-08 22:00N 29°56' W 093°52'0 0.0
2018-Apr-08 21:30N 29°56' W 093°52'0 0.0
2018-Apr-08 21:00N 29°56' W 093°52'0 0.0
2018-Apr-08 20:30N 29°56' W 093°52'0 0.0
2018-Apr-08 20:00N 29°56' W 093°52'0 0.0
2018-Apr-08 19:30N 29°56' W 093°52'0 0.0
2018-Apr-08 19:00N 29°56' W 093°52'0 0.0
2018-Apr-08 18:30N 29°56' W 093°52'0 0.0
2018-Apr-08 18:00N 29°56' W 093°52'0 0.0
2018-Apr-08 17:30N 29°56' W 093°52'0 0.0
2018-Apr-08 17:00N 29°56' W 093°52'0 0.0
2018-Apr-08 16:30N 29°56' W 093°52'0 0.0
2018-Apr-08 16:00N 29°56' W 093°52'0 0.0
2018-Apr-08 15:30N 29°56' W 093°52'0 0.0
2018-Apr-08 15:00N 29°56' W 093°52'0 0.0
2018-Apr-08 14:30N 29°56' W 093°52'0 0.0
2018-Apr-08 14:00N 29°56' W 093°52'0 0.0
2018-Apr-08 13:30N 29°56' W 093°52'0 0.0
2018-Apr-08 13:00N 29°56' W 093°52'0 0.0
2018-Apr-08 12:30N 29°56' W 093°52'0 0.0
2018-Apr-08 12:00N 29°56' W 093°52'0 0.0
2018-Apr-08 11:30N 29°56' W 093°52'0 0.0
2018-Apr-08 11:00N 29°56' W 093°52'0 0.0
2018-Apr-08 10:30N 29°56' W 093°52'0 0.0
2018-Apr-08 10:00N 29°56' W 093°52'0 0.0
2018-Apr-08 09:30N 29°56' W 093°52'0 0.0
2018-Apr-08 09:00N 29°56' W 093°52'0 0.0
2018-Apr-08 08:30N 29°56' W 093°52'0 0.0
2018-Apr-08 08:00N 29°56' W 093°52'0 0.0
2018-Apr-08 07:30N 29°56' W 093°52'0 0.0
2018-Apr-08 07:00N 29°56' W 093°52'0 0.0
2018-Apr-08 06:30N 29°56' W 093°52'0 0.0
2018-Apr-08 06:00N 29°56' W 093°52'0 0.0
2018-Apr-08 05:30N 29°56' W 093°52'0 0.0
2018-Apr-08 05:00N 29°56' W 093°52'0 0.0
2018-Apr-08 04:30N 29°56' W 093°52'0 0.0
2018-Apr-08 04:00N 29°56' W 093°52'0 0.0
2018-Apr-08 03:30N 29°56' W 093°52'0 0.0
2018-Apr-08 03:00N 29°56' W 093°52'0 0.0
2018-Apr-08 02:30N 29°56' W 093°52'0 0.0
2018-Apr-08 02:00N 29°56' W 093°52'0 0.0
2018-Apr-08 01:31N 29°56' W 093°52'0 0.0
2018-Apr-08 01:00N 29°56' W 093°52'0 0.0
2018-Apr-08 00:31N 29°56' W 093°52'1 1.7
2018-Apr-08 00:00N 29°57' W 093°52'1 2.0
2018-Apr-07 23:30N 29°57' W 093°51'4 7.2
2018-Apr-07 23:00N 29°54' W 093°54'4 7.9
2018-Apr-07 22:31N 29°51' W 093°57'3 6.6
2018-Apr-07 22:00N 29°48' W 093°57'5 9.1
2018-Apr-07 21:31N 29°45' W 093°53'4 8.7
2018-Apr-07 21:00N 29°42' W 093°50'4 8.3
2018-Apr-07 20:31N 29°38' W 093°49'5 9.0
2018-Apr-07 20:00N 29°34' W 093°46'2 4.2
2018-Apr-07 19:30N 29°36' W 093°45'0 0.3
2018-Apr-07 18:58N 29°36' W 093°45'0 0.1
2018-Apr-07 18:28N 29°36' W 093°45'0 0.0
2018-Apr-07 17:58N 29°36' W 093°45'0 0.0
2018-Apr-07 17:28N 29°36' W 093°45'0 0.0
2018-Apr-07 16:58N 29°36' W 093°45'0 0.0
2018-Apr-07 16:28N 29°36' W 093°45'0 0.0
2018-Apr-07 15:58N 29°36' W 093°45'0 0.2
2018-Apr-07 15:25N 29°36' W 093°45'0 0.0
2018-Apr-07 14:58N 29°36' W 093°45'0 0.0
2018-Apr-07 14:28N 29°36' W 093°45'0 0.0
2018-Apr-07 13:58N 29°36' W 093°45'0 0.0
2018-Apr-07 13:28N 29°36' W 093°45'0 0.0
2018-Apr-07 12:58N 29°36' W 093°45'0 0.0
2018-Apr-07 12:28N 29°36' W 093°45'0 0.0
2018-Apr-07 11:58N 29°36' W 093°45'0 0.0
2018-Apr-07 11:28N 29°36' W 093°45'0 0.1
2018-Apr-07 10:58N 29°36' W 093°45'0 0.1
2018-Apr-07 10:28N 29°36' W 093°45'0 0.1
2018-Apr-07 09:58N 29°36' W 093°45'0 0.1
2018-Apr-07 09:28N 29°36' W 093°45'0 0.0
2018-Apr-07 08:55N 29°36' W 093°45'0 0.0
2018-Apr-07 08:28N 29°36' W 093°45'0 0.0
2018-Apr-07 07:58N 29°36' W 093°45'0 0.1
2018-Apr-07 07:28N 29°36' W 093°45'0 0.1
2018-Apr-07 06:58N 29°36' W 093°45'0 0.0
2018-Apr-07 06:28N 29°36' W 093°45'0 0.0
2018-Apr-07 05:58N 29°36' W 093°45'0 0.1
2018-Apr-07 05:28N 29°36' W 093°45'0 0.0
2018-Apr-07 04:58N 29°36' W 093°45'0 0.0
2018-Apr-07 04:28N 29°36' W 093°45'0 0.0
2018-Apr-07 03:58N 29°36' W 093°45'0 0.0
2018-Apr-07 03:28N 29°36' W 093°45'0 0.0
2018-Apr-07 02:58N 29°36' W 093°45'0 0.0
2018-Apr-07 02:28N 29°36' W 093°45'0 0.0
2018-Apr-07 01:58N 29°36' W 093°45'0 0.0
2018-Apr-07 01:28N 29°36' W 093°45'0 0.0
2018-Apr-07 00:58N 29°36' W 093°45'0 0.0
2018-Apr-07 00:28N 29°36' W 093°45'0 0.0
2018-Apr-06 23:58N 29°36' W 093°45'0 0.0
2018-Apr-06 23:28N 29°36' W 093°45'0 0.0
2018-Apr-06 22:58N 29°36' W 093°45'0 0.0
2018-Apr-06 22:25N 29°36' W 093°45'0 0.0
2018-Apr-06 21:58N 29°36' W 093°45'0 0.0
2018-Apr-06 21:28N 29°36' W 093°45'0 0.7
2018-Apr-06 21:00N 29°36' W 093°45'4 8.1
2018-Apr-06 20:30N 29°32' W 093°44'611.5
2018-Apr-06 20:00N 29°27' W 093°40'612.5
2018-Apr-06 19:30N 29°21' W 093°41'1712.4
2018-Apr-06 18:09N 29°05' W 093°43'912.3
2018-Apr-06 17:24N 28°57' W 093°49'512.3
2018-Apr-06 16:59N 28°52' W 093°52'510.6
2018-Apr-06 16:30N 28°48' W 093°55'  
Track history (hours):
 
Tides and Currents Weather Stations Pressure Air Temp Water Temp Dewpoint Dewpoint Depression Visibility Wind Speed Wind Dir Waves Ship Positions

Virtuous Striker

Last reported at 2018-Apr-10 11:29 UTC. Time now 2018-Apr-26 09:46 UTC.
Position N 29°15' W 093°40'.
Warning: this ship's position is 15 days out of date.

Length 190 m; draft 12.2 m.

Type: Cargo ship. MMSI: 311025100.

Date/timePositionNaut miles runAvg speedWind from/ knotsBaromVisibWave heightAir tempDewpointWater temp
2018-Apr-10 11:29N 29°15' W 093°40'5 9.9
2018-Apr-10 10:59N 29°20' W 093°40'6 9.9
2018-Apr-10 10:26N 29°25' W 093°40'4 9.7
2018-Apr-10 10:00N 29°29' W 093°41'611.1
2018-Apr-10 09:30N 29°33' W 093°45'510.6
2018-Apr-10 09:00N 29°37' W 093°49'610.9
2018-Apr-10 08:30N 29°43' W 093°51'4 8.8
2018-Apr-10 08:00N 29°46' W 093°55'4 7.9
2018-Apr-10 07:30N 29°49' W 093°57'3 6.0
2018-Apr-10 07:00N 29°52' W 093°56'4 8.2
2018-Apr-10 06:30N 29°55' W 093°53'1 2.5
2018-Apr-10 06:00N 29°56' W 093°52'0 0.0
2018-Apr-10 05:30N 29°56' W 093°52'0 0.0
2018-Apr-10 05:00N 29°56' W 093°52'0 0.0
2018-Apr-10 04:30N 29°56' W 093°52'0 0.0
2018-Apr-10 04:00N 29°56' W 093°52'0 0.0
2018-Apr-10 03:30N 29°56' W 093°52'0 0.0
2018-Apr-10 03:00N 29°56' W 093°52'0 0.0
2018-Apr-10 02:30N 29°56' W 093°52'0 0.0
2018-Apr-10 02:00N 29°56' W 093°52'0 0.0
2018-Apr-10 01:30N 29°56' W 093°52'0 0.0
2018-Apr-10 01:00N 29°56' W 093°52'0 0.0
2018-Apr-10 00:30N 29°56' W 093°52'0 0.0
2018-Apr-10 00:00N 29°56' W 093°52'0 0.0
2018-Apr-09 23:30N 29°56' W 093°52'0 0.0
2018-Apr-09 23:00N 29°56' W 093°52'0 0.0
2018-Apr-09 22:30N 29°56' W 093°52'0 0.0
2018-Apr-09 22:00N 29°56' W 093°52'0 0.0
2018-Apr-09 21:30N 29°56' W 093°52'0 0.0
2018-Apr-09 21:00N 29°56' W 093°52'0 0.0
2018-Apr-09 20:30N 29°56' W 093°52'0 0.0
2018-Apr-09 20:00N 29°56' W 093°52'0 0.0
2018-Apr-09 19:30N 29°56' W 093°52'0 0.0
2018-Apr-09 19:00N 29°56' W 093°52'0 0.0
2018-Apr-09 18:30N 29°56' W 093°52'0 0.0
2018-Apr-09 18:00N 29°56' W 093°52'0 0.0
2018-Apr-09 17:30N 29°56' W 093°52'0 0.0
2018-Apr-09 17:00N 29°56' W 093°52'0 0.0
2018-Apr-09 16:30N 29°56' W 093°52'0 0.0
2018-Apr-09 16:00N 29°56' W 093°52'0 0.0
2018-Apr-09 13:06N 29°56' W 093°52'0 0.1
2018-Apr-09 13:00N 29°56' W 093°52'0 0.0
2018-Apr-09 12:30N 29°56' W 093°52'0 0.0
2018-Apr-09 12:00N 29°56' W 093°52'0 0.0
2018-Apr-09 11:30N 29°56' W 093°52'0 0.0
2018-Apr-09 11:00N 29°56' W 093°52'0 0.0
2018-Apr-09 10:30N 29°56' W 093°52'0 0.0
2018-Apr-09 10:00N 29°56' W 093°52'0 0.0
2018-Apr-09 09:30N 29°56' W 093°52'0 0.0
2018-Apr-09 09:00N 29°56' W 093°52'0 0.0
2018-Apr-09 08:30N 29°56' W 093°52'0 0.0
2018-Apr-09 08:00N 29°56' W 093°52'0 0.0
2018-Apr-09 07:30N 29°56' W 093°52'0 0.0
2018-Apr-09 07:00N 29°56' W 093°52'0 0.0
2018-Apr-09 06:30N 29°56' W 093°52'0 0.0
2018-Apr-09 06:00N 29°56' W 093°52'0 0.0
2018-Apr-09 05:30N 29°56' W 093°52'0 0.0
2018-Apr-09 05:00N 29°56' W 093°52'0 0.0
2018-Apr-09 04:30N 29°56' W 093°52'0 0.0
2018-Apr-09 04:00N 29°56' W 093°52'0 0.0
2018-Apr-09 03:30N 29°56' W 093°52'0 0.0
2018-Apr-09 03:00N 29°56' W 093°52'0 0.0
2018-Apr-09 02:30N 29°56' W 093°52'0 0.0
2018-Apr-09 02:00N 29°56' W 093°52'0 0.0
2018-Apr-09 01:30N 29°56' W 093°52'0 0.0
2018-Apr-09 01:00N 29°56' W 093°52'0 0.0
2018-Apr-09 00:30N 29°56' W 093°52'0 0.0
2018-Apr-09 00:00N 29°56' W 093°52'0 0.0
2018-Apr-08 23:30N 29°56' W 093°52'0 0.0
2018-Apr-08 23:00N 29°56' W 093°52'0 0.0
2018-Apr-08 22:30N 29°56' W 093°52'0 0.0
2018-Apr-08 22:00N 29°56' W 093°52'0 0.0
2018-Apr-08 21:30N 29°56' W 093°52'0 0.0
2018-Apr-08 21:00N 29°56' W 093°52'0 0.0
2018-Apr-08 20:30N 29°56' W 093°52'0 0.0
2018-Apr-08 20:00N 29°56' W 093°52'0 0.0
2018-Apr-08 19:30N 29°56' W 093°52'0 0.0
2018-Apr-08 19:00N 29°56' W 093°52'0 0.0
2018-Apr-08 18:30N 29°56' W 093°52'0 0.0
2018-Apr-08 18:00N 29°56' W 093°52'0 0.0
2018-Apr-08 17:30N 29°56' W 093°52'0 0.0
2018-Apr-08 17:00N 29°56' W 093°52'0 0.0
2018-Apr-08 16:30N 29°56' W 093°52'0 0.0
2018-Apr-08 16:00N 29°56' W 093°52'0 0.0
2018-Apr-08 15:30N 29°56' W 093°52'0 0.0
2018-Apr-08 15:00N 29°56' W 093°52'0 0.0
2018-Apr-08 14:30N 29°56' W 093°52'0 0.0
2018-Apr-08 14:00N 29°56' W 093°52'0 0.0
2018-Apr-08 13:30N 29°56' W 093°52'0 0.0
2018-Apr-08 13:00N 29°56' W 093°52'0 0.0
2018-Apr-08 12:30N 29°56' W 093°52'0 0.0
2018-Apr-08 12:00N 29°56' W 093°52'0 0.0
2018-Apr-08 11:30N 29°56' W 093°52'0 0.0
2018-Apr-08 11:00N 29°56' W 093°52'0 0.0
2018-Apr-08 10:30N 29°56' W 093°52'0 0.0
2018-Apr-08 10:00N 29°56' W 093°52'0 0.0
2018-Apr-08 09:30N 29°56' W 093°52'0 0.0
2018-Apr-08 09:00N 29°56' W 093°52'0 0.0
2018-Apr-08 08:30N 29°56' W 093°52'0 0.0
2018-Apr-08 08:00N 29°56' W 093°52'0 0.0
2018-Apr-08 07:30N 29°56' W 093°52'0 0.0
2018-Apr-08 07:00N 29°56' W 093°52'0 0.0
2018-Apr-08 06:30N 29°56' W 093°52'0 0.0
2018-Apr-08 06:00N 29°56' W 093°52'0 0.0
2018-Apr-08 05:30N 29°56' W 093°52'0 0.0
2018-Apr-08 05:00N 29°56' W 093°52'0 0.0
2018-Apr-08 04:30N 29°56' W 093°52'0 0.0
2018-Apr-08 04:00N 29°56' W 093°52'0 0.0
2018-Apr-08 03:30N 29°56' W 093°52'0 0.0
2018-Apr-08 03:00N 29°56' W 093°52'0 0.0
2018-Apr-08 02:30N 29°56' W 093°52'0 0.0
2018-Apr-08 02:00N 29°56' W 093°52'0 0.0
2018-Apr-08 01:31N 29°56' W 093°52'0 0.0
2018-Apr-08 01:00N 29°56' W 093°52'0 0.0
2018-Apr-08 00:31N 29°56' W 093°52'1 1.7
2018-Apr-08 00:00N 29°57' W 093°52'1 2.0
2018-Apr-07 23:30N 29°57' W 093°51'4 7.2
2018-Apr-07 23:00N 29°54' W 093°54'4 7.9
2018-Apr-07 22:31N 29°51' W 093°57'3 6.6
2018-Apr-07 22:00N 29°48' W 093°57'5 9.1
2018-Apr-07 21:31N 29°45' W 093°53'4 8.7
2018-Apr-07 21:00N 29°42' W 093°50'4 8.3
2018-Apr-07 20:31N 29°38' W 093°49'5 9.0
2018-Apr-07 20:00N 29°34' W 093°46'2 4.2
2018-Apr-07 19:30N 29°36' W 093°45'0 0.3
2018-Apr-07 18:58N 29°36' W 093°45'0 0.1
2018-Apr-07 18:28N 29°36' W 093°45'0 0.0
2018-Apr-07 17:58N 29°36' W 093°45'0 0.0
2018-Apr-07 17:28N 29°36' W 093°45'0 0.0
2018-Apr-07 16:58N 29°36' W 093°45'0 0.0
2018-Apr-07 16:28N 29°36' W 093°45'0 0.0
2018-Apr-07 15:58N 29°36' W 093°45'0 0.2
2018-Apr-07 15:25N 29°36' W 093°45'0 0.0
2018-Apr-07 14:58N 29°36' W 093°45'0 0.0
2018-Apr-07 14:28N 29°36' W 093°45'0 0.0
2018-Apr-07 13:58N 29°36' W 093°45'0 0.0
2018-Apr-07 13:28N 29°36' W 093°45'0 0.0
2018-Apr-07 12:58N 29°36' W 093°45'0 0.0
2018-Apr-07 12:28N 29°36' W 093°45'0 0.0
2018-Apr-07 11:58N 29°36' W 093°45'0 0.0
2018-Apr-07 11:28N 29°36' W 093°45'0 0.1
2018-Apr-07 10:58N 29°36' W 093°45'0 0.1
2018-Apr-07 10:28N 29°36' W 093°45'0 0.1
2018-Apr-07 09:58N 29°36' W 093°45'0 0.1
2018-Apr-07 09:28N 29°36' W 093°45'0 0.0
2018-Apr-07 08:55N 29°36' W 093°45'0 0.0
2018-Apr-07 08:28N 29°36' W 093°45'0 0.0
2018-Apr-07 07:58N 29°36' W 093°45'0 0.1
2018-Apr-07 07:28N 29°36' W 093°45'0 0.1
2018-Apr-07 06:58N 29°36' W 093°45'0 0.0
2018-Apr-07 06:28N 29°36' W 093°45'0 0.0
2018-Apr-07 05:58N 29°36' W 093°45'0 0.1
2018-Apr-07 05:28N 29°36' W 093°45'0 0.0
2018-Apr-07 04:58N 29°36' W 093°45'0 0.0
2018-Apr-07 04:28N 29°36' W 093°45'0 0.0
2018-Apr-07 03:58N 29°36' W 093°45'0 0.0
2018-Apr-07 03:28N 29°36' W 093°45'0 0.0
2018-Apr-07 02:58N 29°36' W 093°45'0 0.0
2018-Apr-07 02:28N 29°36' W 093°45'0 0.0
2018-Apr-07 01:58N 29°36' W 093°45'0 0.0
2018-Apr-07 01:28N 29°36' W 093°45'0 0.0
2018-Apr-07 00:58N 29°36' W 093°45'0 0.0
2018-Apr-07 00:28N 29°36' W 093°45'0 0.0
2018-Apr-06 23:58N 29°36' W 093°45'0 0.0
2018-Apr-06 23:28N 29°36' W 093°45'0 0.0
2018-Apr-06 22:58N 29°36' W 093°45'0 0.0
2018-Apr-06 22:25N 29°36' W 093°45'0 0.0
2018-Apr-06 21:58N 29°36' W 093°45'0 0.0
2018-Apr-06 21:28N 29°36' W 093°45'0 0.7
2018-Apr-06 21:00N 29°36' W 093°45'4 8.1
2018-Apr-06 20:30N 29°32' W 093°44'611.5
2018-Apr-06 20:00N 29°27' W 093°40'612.5
2018-Apr-06 19:30N 29°21' W 093°41'1712.4
2018-Apr-06 18:09N 29°05' W 093°43'912.3
2018-Apr-06 17:24N 28°57' W 093°49'512.3
2018-Apr-06 16:59N 28°52' W 093°52'510.6
2018-Apr-06 16:30N 28°48' W 093°55'  

Dump ship's entire track history